Thornton, Iowa
Current Conditions -  °F | °C
As of 4:30 PM on Sunday 23 Nov 2014 (Local Time) from KMCW Reporting Station
Overcast Overcast  
Wind Chill: 36°   Ceiling: 1500
Heat Index: 43°   Visibility: 10mi
Dew Point: 41°   Wind: 13mph
Humidity: 93%   Direction: 330°NNW
Pressure: 29.39"   Gusts: NA
Location:  42.94°N, 93.38°W
Report Text: KMCW 232230Z AUTO 33011KT 10SM OVC015 06/05 A2939 RMK AO2 T00610050
Loading
Personal Weather Stations






























Interactive Weather Map New forecast layout! Learn more

10-Day Weather Forecast

Advertisements
Track Severe Weather on mobile